LDPL/PUY METAR and TAF weather

Enter ICAO airport designator
Station Type Date Time Source
LDPL METAR 2024/06/14 02:00 UTC NOAA

LDPL 140200Z 03006KT CAVOK 14/09 Q1016 NOSIG


Station Type Date Time Source
LDPL Decoded METAR 2024/06/14 02:00 UTC NOAA

Pula Aerodrome, Croatia (LDPL) 45-54N 013-55E 63M
Jun 13, 2024 - 10:00 PM EDT / 2024.06.14 0200 UTC
Wind: from the NNE (030 degrees) at 7 MPH (6 KT):0
Visibility: greater than 7 mile(s):0
Temperature: 57 F (14 C)
Dew Point: 48 F (9 C)
Relative Humidity: 71%
Pressure (altimeter): 30.00 in. Hg (1016 hPa)
ob: LDPL 140200Z 03006KT CAVOK 14/09 Q1016 NOSIG
cycle: 2

Station Type Date Time Source
LDPL TAF 2024/06/13 18:30 UTC NOAA